createdAt,value
2018-01-07T00:02:10.555Z,14.50
2018-01-07T00:04:37.286Z,12.97
2018-01-07T00:07:04.025Z,12.07
2018-01-07T00:09:30.777Z,12.23
2018-01-07T00:11:57.495Z,10.20
2018-01-07T00:14:24.270Z,11.20
2018-01-07T00:16:51.094Z,11.43
2018-01-07T00:19:17.825Z,10.70
2018-01-07T00:21:44.564Z,8.57
2018-01-07T00:24:11.321Z,8.63
2018-01-07T00:26:38.076Z,9.20
2018-01-07T00:29:04.807Z,13.80
2018-01-07T00:31:31.533Z,10.63
2018-01-07T00:33:58.271Z,10.87
2018-01-07T00:36:25.027Z,12.10
2018-01-07T00:38:51.753Z,12.73
2018-01-07T00:41:18.488Z,11.00
2018-01-07T00:43:45.236Z,12.40
2018-01-07T00:46:12.051Z,10.63
2018-01-07T00:48:38.816Z,12.47
2018-01-07T00:51:05.576Z,9.57
2018-01-07T00:53:32.332Z,10.73
2018-01-07T00:55:59.064Z,9.90
2018-01-07T00:58:25.794Z,7.57
2018-01-07T01:00:52.522Z,9.27
2018-01-07T01:03:19.268Z,11.73
2018-01-07T01:05:46.015Z,9.90
2018-01-07T01:08:12.757Z,8.50
2018-01-07T01:10:39.495Z,7.40
2018-01-07T01:13:06.228Z,8.47
2018-01-07T01:15:32.967Z,9.80
2018-01-07T01:17:59.723Z,8.03
2018-01-07T01:20:26.459Z,9.33
2018-01-07T01:22:53.180Z,8.30
2018-01-07T01:25:19.903Z,6.93
2018-01-07T01:27:46.682Z,7.83
2018-01-07T01:30:13.458Z,9.50
2018-01-07T01:32:40.176Z,7.77
2018-01-07T01:35:06.935Z,9.70
2018-01-07T01:37:33.655Z,10.67
2018-01-07T01:40:00.382Z,8.40
2018-01-07T01:42:27.148Z,6.27
2018-01-07T01:44:53.880Z,8.37
2018-01-07T01:47:20.608Z,9.00
2018-01-07T01:49:47.382Z,7.03
2018-01-07T01:52:14.090Z,9.27
2018-01-07T01:54:40.818Z,7.67
2018-01-07T01:57:07.556Z,10.13
2018-01-07T01:59:34.282Z,6.10
2018-01-07T02:02:01.040Z,8.33
2018-01-07T02:04:27.781Z,7.43
2018-01-07T02:06:54.563Z,5.80
2018-01-07T02:09:21.306Z,7.80
2018-01-07T02:11:48.043Z,8.17
2018-01-07T02:14:14.759Z,6.90
2018-01-07T02:16:41.510Z,6.50
2018-01-07T02:19:08.269Z,7.33
2018-01-07T02:21:35.015Z,7.50
2018-01-07T02:24:01.747Z,5.10
2018-01-07T02:26:28.474Z,5.53
2018-01-07T02:28:55.204Z,5.80
2018-01-07T02:31:21.941Z,9.17
2018-01-07T02:33:48.677Z,6.50
2018-01-07T02:36:15.432Z,8.80
2018-01-07T02:38:42.151Z,8.03
2018-01-07T02:41:08.905Z,7.77
2018-01-07T02:43:35.642Z,8.73
2018-01-07T02:46:02.376Z,5.63
2018-01-07T02:48:29.154Z,7.17
2018-01-07T02:50:55.888Z,7.10
2018-01-07T02:53:22.600Z,5.10
2018-01-07T02:55:49.474Z,5.60
2018-01-07T02:58:16.182Z,6.03
2018-01-07T03:00:42.903Z,6.57
2018-01-07T03:03:09.634Z,8.03
2018-01-07T03:05:36.343Z,8.97
2018-01-07T03:08:03.068Z,8.63
2018-01-07T03:10:29.810Z,6.10
2018-01-07T03:12:56.534Z,6.77
2018-01-07T03:15:23.290Z,6.37
2018-01-07T03:17:50.019Z,6.93
2018-01-07T03:20:16.728Z,5.90
2018-01-07T03:22:43.476Z,7.23
2018-01-07T03:25:10.256Z,6.30
2018-01-07T03:27:36.980Z,7.47
2018-01-07T03:30:03.735Z,6.90
2018-01-07T03:32:30.473Z,7.30
2018-01-07T03:34:57.211Z,5.30
2018-01-07T03:37:23.937Z,6.20
2018-01-07T03:39:50.654Z,6.90
2018-01-07T03:42:17.392Z,6.10
2018-01-07T03:44:44.178Z,5.50
2018-01-07T03:47:10.917Z,6.47
2018-01-07T03:49:37.656Z,9.23
2018-01-07T03:52:04.390Z,5.77
2018-01-07T03:54:31.140Z,5.67
2018-01-07T03:56:57.932Z,5.73
2018-01-07T03:59:24.751Z,7.97
2018-01-07T04:01:51.514Z,5.93
2018-01-07T04:04:18.225Z,5.87
2018-01-07T04:06:44.963Z,6.90
2018-01-07T04:09:11.696Z,6.10
2018-01-07T04:11:38.411Z,8.60
2018-01-07T04:14:05.142Z,4.90
2018-01-07T04:16:31.882Z,5.30
2018-01-07T04:18:58.604Z,5.97
2018-01-07T04:21:25.345Z,6.30
2018-01-07T04:23:52.130Z,5.67
2018-01-07T04:26:18.872Z,5.90
2018-01-07T04:28:45.619Z,5.87
2018-01-07T04:31:12.365Z,5.20
2018-01-07T04:33:39.096Z,5.93
2018-01-07T04:36:05.822Z,6.57
2018-01-07T04:38:32.583Z,6.10
2018-01-07T04:40:59.321Z,11.77
2018-01-07T04:43:26.932Z,6.47
2018-01-07T04:45:53.670Z,5.53
2018-01-07T04:48:20.397Z,6.50
2018-01-07T04:50:47.278Z,6.40
2018-01-07T04:53:14.007Z,4.70
2018-01-07T04:55:40.751Z,4.90
2018-01-07T04:58:07.470Z,6.63
2018-01-07T05:00:34.238Z,4.30
2018-01-07T05:03:00.957Z,6.30
2018-01-07T05:05:27.676Z,4.70
2018-01-07T05:07:54.405Z,4.70
2018-01-07T05:10:21.128Z,6.70
2018-01-07T05:12:47.836Z,6.00
2018-01-07T05:15:14.579Z,5.20
2018-01-07T05:17:41.298Z,6.13
2018-01-07T05:20:08.026Z,4.17
2018-01-07T05:22:34.775Z,8.13
2018-01-07T05:25:01.481Z,4.50
2018-01-07T05:27:28.191Z,5.27
2018-01-07T05:29:54.947Z,5.70
2018-01-07T05:32:21.661Z,6.90
2018-01-07T05:34:48.408Z,6.27
2018-01-07T05:37:15.153Z,4.93
2018-01-07T05:39:41.884Z,6.57
2018-01-07T05:42:08.614Z,5.00
2018-01-07T05:44:35.375Z,4.27
2018-01-07T05:47:02.086Z,3.90
2018-01-07T05:49:28.799Z,5.10
2018-01-07T05:51:55.632Z,6.60
2018-01-07T05:54:22.341Z,8.00
2018-01-07T05:56:49.052Z,5.57
2018-01-07T05:59:15.807Z,4.63
2018-01-07T06:01:42.527Z,4.00
2018-01-07T06:04:09.307Z,5.03
2018-01-07T06:06:36.074Z,5.23
2018-01-07T06:09:02.825Z,4.83
2018-01-07T06:11:29.545Z,5.33
2018-01-07T06:13:56.267Z,7.43
2018-01-07T06:16:23.023Z,5.77
2018-01-07T06:18:49.740Z,5.07
2018-01-07T06:21:16.475Z,5.30
2018-01-07T06:23:43.207Z,9.20
2018-01-07T06:26:09.935Z,5.10
2018-01-07T06:28:36.682Z,12.73
2018-01-07T06:31:03.403Z,5.33
2018-01-07T06:33:30.126Z,5.30
2018-01-07T06:35:56.868Z,4.30
2018-01-07T06:38:23.584Z,6.97
2018-01-07T06:40:50.301Z,4.90
2018-01-07T06:43:17.037Z,6.60
2018-01-07T06:45:43.765Z,6.87
2018-01-07T06:48:10.512Z,6.10
2018-01-07T06:50:37.237Z,5.90
2018-01-07T06:53:03.981Z,5.53
2018-01-07T06:55:30.703Z,6.80
2018-01-07T06:57:57.694Z,5.70
2018-01-07T07:00:24.498Z,7.67
2018-01-07T07:02:51.245Z,5.43
2018-01-07T07:05:17.987Z,8.27
2018-01-07T07:07:44.718Z,4.97
2018-01-07T07:10:11.754Z,7.03
2018-01-07T07:12:38.521Z,5.40
2018-01-07T07:15:05.268Z,7.67
2018-01-07T07:17:31.999Z,6.67
2018-01-07T07:19:58.753Z,5.93
2018-01-07T07:22:25.473Z,12.93
2018-01-07T07:24:52.222Z,8.33
2018-01-07T07:27:18.947Z,6.23
2018-01-07T07:29:45.669Z,10.23
2018-01-07T07:32:12.382Z,10.73
2018-01-07T07:34:39.112Z,5.73
2018-01-07T07:37:05.859Z,8.83
2018-01-07T07:39:32.604Z,6.50
2018-01-07T07:41:59.343Z,6.73
2018-01-07T07:44:26.053Z,7.73
2018-01-07T07:46:52.788Z,12.10
2018-01-07T07:49:19.548Z,11.10
2018-01-07T07:51:46.289Z,11.80
2018-01-07T07:54:13.007Z,11.50
2018-01-07T07:56:39.748Z,9.47
2018-01-07T07:59:06.493Z,9.40
2018-01-07T08:01:33.246Z,12.00
2018-01-07T08:04:00.099Z,11.80
2018-01-07T08:06:26.951Z,7.00
2018-01-07T08:08:53.689Z,6.53
2018-01-07T08:11:20.488Z,8.23
2018-01-07T08:13:50.736Z,8.97
2018-01-07T08:16:17.445Z,8.77
2018-01-07T08:18:44.217Z,11.57
2018-01-07T08:21:10.946Z,8.57
2018-01-07T08:23:37.667Z,9.30
2018-01-07T08:26:04.403Z,8.10
2018-01-07T08:28:31.157Z,16.13
2018-01-07T08:30:57.862Z,9.80
2018-01-07T08:33:24.617Z,11.23
2018-01-07T08:35:51.363Z,11.63
2018-01-07T08:38:18.085Z,15.10
2018-01-07T08:40:44.835Z,12.07
2018-01-07T08:43:11.555Z,8.13
2018-01-07T08:45:38.254Z,8.23
2018-01-07T08:48:05.019Z,12.70
2018-01-07T08:50:31.742Z,8.33
2018-01-07T08:52:58.490Z,9.40
2018-01-07T08:55:25.218Z,14.70
2018-01-07T08:57:51.988Z,13.50
2018-01-07T09:00:18.727Z,11.33
2018-01-07T09:02:45.491Z,10.70
2018-01-07T09:05:12.242Z,12.93
2018-01-07T09:07:38.959Z,10.27
2018-01-07T09:10:05.694Z,13.40
2018-01-07T09:12:32.420Z,12.57
2018-01-07T09:14:59.137Z,13.90
2018-01-07T09:17:25.847Z,12.40
2018-01-07T09:19:52.556Z,11.20
2018-01-07T09:22:19.287Z,12.17
2018-01-07T09:24:46.021Z,11.10
2018-01-07T09:27:12.774Z,15.13
2018-01-07T09:29:39.501Z,13.23
2018-01-07T09:32:06.246Z,23.33
2018-01-07T09:34:32.967Z,19.17
2018-01-07T09:36:59.677Z,13.20
2018-01-07T09:39:26.422Z,11.30
2018-01-07T09:41:53.142Z,9.43
2018-01-07T09:44:19.859Z,13.00
2018-01-07T09:46:46.594Z,10.67
2018-01-07T09:49:13.318Z,13.17
2018-01-07T09:51:40.066Z,9.63
2018-01-07T09:54:06.789Z,9.17
2018-01-07T09:56:33.530Z,12.97
2018-01-07T09:59:00.265Z,11.10
2018-01-07T10:01:27.025Z,10.93
2018-01-07T10:03:53.758Z,11.00
2018-01-07T10:06:20.470Z,9.20
2018-01-07T10:08:47.185Z,9.70
2018-01-07T10:11:13.926Z,12.97
2018-01-07T10:13:40.631Z,8.87
2018-01-07T10:16:07.373Z,8.50
2018-01-07T10:18:34.099Z,7.83
2018-01-07T10:21:00.824Z,8.87
2018-01-07T10:23:27.583Z,8.87
2018-01-07T10:25:54.302Z,7.30
2018-01-07T10:28:21.019Z,7.13
2018-01-07T10:30:47.763Z,8.90
2018-01-07T10:33:14.497Z,8.73
2018-01-07T10:35:41.203Z,7.00
2018-01-07T10:38:07.935Z,7.80
2018-01-07T10:40:34.661Z,7.57
2018-01-07T10:43:01.433Z,7.47
2018-01-07T10:45:28.164Z,6.10
2018-01-07T10:47:54.902Z,9.40
2018-01-07T10:50:21.610Z,6.83
2018-01-07T10:52:48.333Z,8.30
2018-01-07T10:55:15.099Z,8.93
2018-01-07T10:57:41.811Z,6.00
2018-01-07T11:00:08.561Z,11.90
2018-01-07T11:02:35.278Z,11.27
2018-01-07T11:05:01.986Z,7.00
2018-01-07T11:07:28.736Z,7.93
2018-01-07T11:09:55.476Z,7.97
2018-01-07T11:12:22.218Z,10.33
2018-01-07T11:14:48.951Z,14.40
2018-01-07T11:17:15.706Z,11.87
2018-01-07T11:19:42.433Z,8.50
2018-01-07T11:22:09.174Z,9.80
2018-01-07T11:24:35.893Z,8.47
2018-01-07T11:27:02.606Z,7.50
2018-01-07T11:29:29.339Z,9.37
2018-01-07T11:31:56.063Z,8.23
2018-01-07T11:34:22.795Z,10.13
2018-01-07T11:36:49.523Z,8.57
2018-01-07T11:39:16.253Z,8.57
2018-01-07T11:41:42.971Z,9.30
2018-01-07T11:44:09.706Z,11.90
2018-01-07T11:46:36.429Z,12.10
2018-01-07T11:49:03.127Z,9.53
2018-01-07T11:51:29.865Z,7.70
2018-01-07T11:53:56.604Z,8.83
2018-01-07T11:56:23.362Z,8.20
2018-01-07T11:58:50.080Z,8.00
2018-01-07T12:01:16.808Z,11.73
2018-01-07T12:03:43.561Z,7.67
2018-01-07T12:06:10.288Z,8.03
2018-01-07T12:08:37.064Z,7.50
2018-01-07T12:11:03.778Z,7.43
2018-01-07T12:13:30.520Z,7.30
2018-01-07T12:15:57.234Z,7.57
2018-01-07T12:18:23.945Z,7.47
2018-01-07T12:20:50.686Z,7.53
2018-01-07T12:23:17.401Z,8.47
2018-01-07T12:25:44.124Z,8.03
2018-01-07T12:28:10.877Z,7.70
2018-01-07T12:30:37.591Z,8.90
2018-01-07T12:33:04.298Z,8.73
2018-01-07T12:35:31.034Z,8.53
2018-01-07T12:37:57.759Z,8.93
2018-01-07T12:40:24.483Z,9.53
2018-01-07T12:42:51.232Z,7.73
2018-01-07T12:45:17.951Z,8.97
2018-01-07T12:47:44.692Z,13.60
2018-01-07T12:50:11.409Z,8.43
2018-01-07T12:52:38.121Z,8.07
2018-01-07T12:55:04.860Z,12.57
2018-01-07T12:57:31.597Z,7.87
2018-01-07T12:59:58.301Z,8.47
2018-01-07T13:02:25.043Z,7.93
2018-01-07T13:04:51.760Z,10.53
2018-01-07T13:07:18.467Z,9.10
2018-01-07T13:09:45.184Z,7.03
2018-01-07T13:12:11.916Z,7.30
2018-01-07T13:14:38.635Z,7.40
2018-01-07T13:17:05.368Z,12.17
2018-01-07T13:19:32.092Z,8.80
2018-01-07T13:21:58.841Z,7.33
2018-01-07T13:24:25.572Z,9.07
2018-01-07T13:26:52.319Z,6.60
2018-01-07T13:29:19.055Z,8.10
2018-01-07T13:31:45.772Z,8.10
2018-01-07T13:34:12.483Z,9.00
2018-01-07T13:36:39.207Z,7.10
2018-01-07T13:39:05.947Z,9.17
2018-01-07T13:41:32.680Z,8.07
2018-01-07T13:43:59.427Z,11.90
2018-01-07T13:46:26.142Z,8.43
2018-01-07T13:48:53.011Z,13.13
2018-01-07T13:51:19.743Z,7.63
2018-01-07T13:53:46.485Z,7.60
2018-01-07T13:56:13.219Z,13.20
2018-01-07T13:58:39.969Z,8.53
2018-01-07T14:01:06.708Z,7.60
2018-01-07T14:03:33.429Z,8.40
2018-01-07T14:06:00.166Z,7.00
2018-01-07T14:08:26.871Z,7.10
2018-01-07T14:10:53.623Z,8.00
2018-01-07T14:13:20.351Z,7.53
2018-01-07T14:15:47.060Z,8.00
2018-01-07T14:18:13.796Z,7.70
2018-01-07T14:20:40.530Z,7.10
2018-01-07T14:23:07.270Z,7.57
2018-01-07T14:25:34.015Z,8.10
2018-01-07T14:28:00.727Z,10.70
2018-01-07T14:30:27.467Z,9.10
2018-01-07T14:32:54.212Z,9.97
2018-01-07T14:35:20.947Z,9.23
2018-01-07T14:37:47.838Z,10.67
2018-01-07T14:40:14.567Z,7.83
2018-01-07T14:42:41.336Z,9.63
2018-01-07T14:45:08.065Z,10.53
2018-01-07T14:47:34.798Z,8.57
2018-01-07T14:50:01.525Z,7.97
2018-01-07T14:52:28.239Z,7.57
2018-01-07T14:54:55.019Z,8.93
2018-01-07T14:57:21.731Z,7.57
2018-01-07T14:59:48.479Z,8.43
2018-01-07T15:02:15.248Z,6.97
2018-01-07T15:04:41.978Z,8.87
2018-01-07T15:07:08.720Z,8.93
2018-01-07T15:09:35.456Z,10.50
2018-01-07T15:12:02.181Z,10.50
2018-01-07T15:14:28.919Z,8.37
2018-01-07T15:16:55.648Z,8.70
2018-01-07T15:19:22.374Z,13.10
2018-01-07T15:21:49.105Z,10.27
2018-01-07T15:24:15.825Z,8.30
2018-01-07T15:26:42.581Z,11.50
2018-01-07T15:29:09.301Z,11.67
2018-01-07T15:31:36.058Z,11.60
2018-01-07T15:34:02.793Z,10.47
2018-01-07T15:36:29.516Z,9.67
2018-01-07T15:38:56.250Z,9.17
2018-01-07T15:41:22.967Z,9.93
2018-01-07T15:43:49.715Z,10.00
2018-01-07T15:46:16.459Z,9.70
2018-01-07T15:48:43.235Z,11.00
2018-01-07T15:51:09.975Z,16.83
2018-01-07T15:53:36.723Z,12.83
2018-01-07T15:56:03.497Z,13.80
2018-01-07T15:58:30.231Z,14.23
2018-01-07T16:00:56.987Z,14.63
2018-01-07T16:03:23.816Z,13.70
2018-01-07T16:05:50.616Z,14.47
2018-01-07T16:08:17.347Z,14.23
2018-01-07T16:10:44.078Z,16.40
2018-01-07T16:13:10.818Z,14.70
2018-01-07T16:15:37.583Z,14.57
2018-01-07T16:18:04.316Z,14.10
2018-01-07T16:20:31.063Z,11.27
2018-01-07T16:22:57.881Z,12.57
2018-01-07T16:25:24.651Z,12.93
2018-01-07T16:27:51.409Z,13.80
2018-01-07T16:30:18.202Z,16.40
2018-01-07T16:32:44.948Z,13.30
2018-01-07T16:35:11.696Z,14.67
2018-01-07T16:37:38.433Z,14.63
2018-01-07T16:40:05.248Z,11.20
2018-01-07T16:42:32.022Z,11.40
2018-01-07T16:44:58.766Z,17.80
2018-01-07T16:47:25.515Z,14.03
2018-01-07T16:49:52.284Z,14.73
2018-01-07T16:52:19.011Z,14.33
2018-01-07T16:54:45.750Z,14.00
2018-01-07T16:57:12.480Z,15.17
2018-01-07T16:59:39.248Z,15.00
2018-01-07T17:02:06.003Z,16.57
2018-01-07T17:04:32.761Z,22.70
2018-01-07T17:06:59.513Z,23.93
2018-01-07T17:09:26.246Z,24.63
2018-01-07T17:11:52.993Z,22.47
2018-01-07T17:14:19.740Z,28.20
2018-01-07T17:16:46.478Z,21.53
2018-01-07T17:19:13.911Z,23.13
2018-01-07T17:21:40.740Z,21.20
2018-01-07T17:24:07.507Z,24.70
2018-01-07T17:26:34.293Z,28.50
2018-01-07T17:29:01.146Z,19.90
2018-01-07T17:31:27.905Z,22.87
2018-01-07T17:33:54.741Z,25.40
2018-01-07T17:36:21.538Z,22.93
2018-01-07T17:38:48.332Z,24.40
2018-01-07T17:41:15.150Z,22.67
2018-01-07T17:43:42.015Z,23.53
2018-01-07T17:46:08.764Z,23.57
2018-01-07T17:48:35.549Z,19.57
2018-01-07T17:51:02.367Z,24.03
2018-01-07T17:53:29.161Z,22.70
2018-01-07T17:55:55.992Z,24.57
2018-01-07T17:58:22.855Z,23.63
2018-01-07T18:00:49.718Z,24.83
2018-01-07T18:03:16.522Z,20.87
2018-01-07T18:05:43.354Z,18.93
2018-01-07T18:08:10.291Z,21.13
2018-01-07T18:10:37.068Z,20.90
2018-01-07T18:13:03.850Z,22.13
2018-01-07T18:15:30.575Z,22.03
2018-01-07T18:17:57.667Z,22.10
2018-01-07T18:20:24.542Z,23.07
2018-01-07T18:22:51.314Z,17.97
2018-01-07T18:25:18.065Z,21.43
2018-01-07T18:27:44.924Z,17.43
2018-01-07T18:30:12.097Z,20.53
2018-01-07T18:32:39.154Z,21.50
2018-01-07T18:35:06.335Z,22.20
2018-01-07T18:37:33.747Z,21.90
2018-01-07T18:40:00.520Z,19.23
2018-01-07T18:42:27.384Z,19.27
2018-01-07T18:44:54.143Z,22.60
2018-01-07T18:47:20.905Z,22.80
2018-01-07T18:49:47.656Z,20.73
2018-01-07T18:52:14.394Z,19.63
2018-01-07T18:54:41.163Z,20.90
2018-01-07T18:57:07.911Z,23.00
2018-01-07T18:59:34.649Z,21.00
2018-01-07T19:02:01.429Z,23.47
2018-01-07T19:04:28.230Z,23.63
2018-01-07T19:06:54.973Z,23.53
2018-01-07T19:09:21.714Z,24.67
2018-01-07T19:11:48.512Z,23.40
2018-01-07T19:14:15.293Z,22.67
2018-01-07T19:16:42.053Z,21.90
2018-01-07T19:19:08.836Z,22.57
2018-01-07T19:21:35.618Z,23.53
2018-01-07T19:24:02.353Z,22.13
2018-01-07T19:26:29.146Z,23.00
2018-01-07T19:28:55.889Z,27.43
2018-01-07T19:31:22.671Z,23.10
2018-01-07T19:33:49.541Z,22.17
2018-01-07T19:36:16.377Z,23.53
2018-01-07T19:38:43.323Z,29.40
2018-01-07T19:41:10.742Z,27.33
2018-01-07T19:43:37.789Z,23.50
2018-01-07T19:46:04.815Z,23.73
2018-01-07T19:48:31.913Z,26.83
2018-01-07T19:50:58.701Z,31.07
2018-01-07T19:53:25.452Z,27.97
2018-01-07T19:55:52.526Z,31.60
2018-01-07T19:58:19.335Z,31.73
2018-01-07T20:00:46.348Z,24.77
2018-01-07T20:03:13.241Z,33.40
2018-01-07T20:05:39.997Z,31.20
2018-01-07T20:08:06.764Z,28.60
2018-01-07T20:10:33.777Z,26.20
2018-01-07T20:13:00.568Z,28.77
2018-01-07T20:15:27.634Z,36.73
2018-01-07T20:17:54.758Z,31.20
2018-01-07T20:20:21.576Z,30.73
2018-01-07T20:22:48.584Z,32.30
2018-01-07T20:25:15.435Z,37.37
2018-01-07T20:27:59.814Z,34.90
2018-01-07T20:30:44.729Z,34.30
2018-01-07T20:33:11.507Z,31.10
2018-01-07T20:35:38.307Z,34.30
2018-01-07T20:38:05.050Z,37.50
2018-01-07T20:40:31.826Z,28.93
2018-01-07T20:42:58.585Z,27.13
2018-01-07T20:45:25.346Z,30.93
2018-01-07T20:47:52.586Z,27.43
2018-01-07T20:50:19.471Z,26.80
2018-01-07T20:52:46.267Z,27.50
2018-01-07T20:55:13.027Z,29.63
2018-01-07T20:57:39.804Z,27.33
2018-01-07T21:00:06.609Z,33.50
2018-01-07T21:02:33.375Z,32.40
2018-01-07T21:05:00.121Z,32.27
2018-01-07T21:07:26.891Z,32.93
2018-01-07T21:09:53.644Z,33.63
2018-01-07T21:12:20.367Z,35.20
2018-01-07T21:14:47.133Z,32.83
2018-01-07T21:17:13.965Z,35.10
2018-01-07T21:19:40.725Z,41.27
2018-01-07T21:22:07.528Z,37.93
2018-01-07T21:24:34.297Z,35.60
2018-01-07T21:27:01.501Z,38.73
2018-01-07T21:29:28.253Z,37.90
2018-01-07T21:31:55.041Z,36.47
2018-01-07T21:34:21.858Z,33.30
2018-01-07T21:36:49.131Z,34.73
2018-01-07T21:39:15.870Z,32.80
2018-01-07T21:41:42.625Z,35.57
2018-01-07T21:44:09.900Z,33.17
2018-01-07T21:46:36.622Z,33.63
2018-01-07T21:49:03.553Z,37.43
2018-01-07T21:51:30.305Z,40.47
2018-01-07T21:53:57.070Z,36.43
2018-01-07T21:56:23.819Z,36.80
2018-01-07T21:58:50.574Z,39.33
2018-01-07T22:01:23.247Z,28.50
2018-01-07T22:04:00.013Z,34.57
2018-01-07T22:06:32.731Z,31.07
2018-01-07T22:08:59.494Z,34.17
2018-01-07T22:11:26.286Z,33.40
2018-01-07T22:13:53.022Z,31.77
2018-01-07T22:16:19.762Z,32.97
2018-01-07T22:18:46.517Z,34.60
2018-01-07T22:21:13.251Z,36.80
2018-01-07T22:23:40.022Z,39.43
2018-01-07T22:26:06.772Z,39.20
2018-01-07T22:28:33.532Z,38.10
2018-01-07T22:31:00.263Z,37.40
2018-01-07T22:33:27.010Z,38.73
2018-01-07T22:35:53.748Z,35.07
2018-01-07T22:38:20.485Z,30.60
2018-01-07T22:40:47.230Z,36.93
2018-01-07T22:43:13.973Z,34.90
2018-01-07T22:45:40.715Z,38.73
2018-01-07T22:48:09.459Z,33.80
2018-01-07T22:50:36.173Z,35.23
2018-01-07T22:53:02.909Z,32.47
2018-01-07T22:55:29.686Z,32.80
2018-01-07T22:57:56.419Z,34.03
2018-01-07T23:00:23.150Z,34.10
2018-01-07T23:02:49.905Z,37.60
2018-01-07T23:05:16.628Z,32.33
2018-01-07T23:07:43.365Z,40.50
2018-01-07T23:10:10.113Z,33.00
2018-01-07T23:12:36.906Z,31.57
2018-01-07T23:15:03.654Z,31.60
2018-01-07T23:17:30.391Z,39.30
2018-01-07T23:19:57.115Z,35.47
2018-01-07T23:22:23.841Z,33.97
2018-01-07T23:24:50.619Z,31.00
2018-01-07T23:27:17.354Z,31.27
2018-01-07T23:29:44.085Z,34.37
2018-01-07T23:32:10.833Z,35.47
2018-01-07T23:34:37.577Z,35.00
2018-01-07T23:37:04.329Z,34.20
2018-01-07T23:39:31.077Z,29.97
2018-01-07T23:41:57.803Z,32.70
2018-01-07T23:44:24.615Z,33.10
2018-01-07T23:46:51.355Z,33.13
2018-01-07T23:49:18.085Z,38.03
2018-01-07T23:51:44.799Z,31.10
2018-01-07T23:54:11.560Z,26.97
2018-01-07T23:56:38.277Z,27.63
2018-01-07T23:59:04.990Z,34.23
